sensor_id;sensor_type;location;lat;lon;timestamp;temperature;humidity
27266;DHT22;14766;51.380;13.762;2023-03-01T00:01:40;2.60;58.30
27266;DHT22;14766;51.380;13.762;2023-03-01T00:04:07;2.60;58.30
27266;DHT22;14766;51.380;13.762;2023-03-01T00:06:35;2.60;58.10
27266;DHT22;14766;51.380;13.762;2023-03-01T00:09:02;2.60;58.10
27266;DHT22;14766;51.380;13.762;2023-03-01T00:11:31;2.60;58.00
27266;DHT22;14766;51.380;13.762;2023-03-01T00:14:01;2.60;58.00
27266;DHT22;14766;51.380;13.762;2023-03-01T00:16:31;2.60;57.90
27266;DHT22;14766;51.380;13.762;2023-03-01T00:18:59;2.50;57.80
27266;DHT22;14766;51.380;13.762;2023-03-01T00:21:26;2.50;57.80
27266;DHT22;14766;51.380;13.762;2023-03-01T00:23:54;2.50;57.90
27266;DHT22;14766;51.380;13.762;2023-03-01T00:26:23;2.50;57.90
27266;DHT22;14766;51.380;13.762;2023-03-01T00:28:51;2.50;57.90
27266;DHT22;14766;51.380;13.762;2023-03-01T00:31:21;2.40;57.80
27266;DHT22;14766;51.380;13.762;2023-03-01T00:33:52;2.40;57.70
27266;DHT22;14766;51.380;13.762;2023-03-01T00:36:28;2.40;57.70
27266;DHT22;14766;51.380;13.762;2023-03-01T00:38:57;2.40;57.60
27266;DHT22;14766;51.380;13.762;2023-03-01T00:41:26;2.40;57.60
27266;DHT22;14766;51.380;13.762;2023-03-01T00:43:54;2.40;57.60
27266;DHT22;14766;51.380;13.762;2023-03-01T00:46:24;2.40;57.60
27266;DHT22;14766;51.380;13.762;2023-03-01T00:48:51;2.30;57.60
27266;DHT22;14766;51.380;13.762;2023-03-01T00:51:29;2.30;57.60
27266;DHT22;14766;51.380;13.762;2023-03-01T00:53:58;2.30;57.70
27266;DHT22;14766;51.380;13.762;2023-03-01T00:56:26;2.30;57.60
27266;DHT22;14766;51.380;13.762;2023-03-01T00:58:53;2.30;57.50
27266;DHT22;14766;51.380;13.762;2023-03-01T01:01:24;2.30;57.60
27266;DHT22;14766;51.380;13.762;2023-03-01T01:04:00;2.20;57.60
27266;DHT22;14766;51.380;13.762;2023-03-01T01:06:30;2.20;57.60
27266;DHT22;14766;51.380;13.762;2023-03-01T01:08:58;2.20;57.70
27266;DHT22;14766;51.380;13.762;2023-03-01T01:11:28;2.20;57.70
27266;DHT22;14766;51.380;13.762;2023-03-01T01:13:57;2.20;57.70
27266;DHT22;14766;51.380;13.762;2023-03-01T01:16:26;2.10;57.70
27266;DHT22;14766;51.380;13.762;2023-03-01T01:18:53;2.20;57.80
27266;DHT22;14766;51.380;13.762;2023-03-01T01:21:22;2.10;57.70
27266;DHT22;14766;51.380;13.762;2023-03-01T01:23:50;2.10;57.80
27266;DHT22;14766;51.380;13.762;2023-03-01T01:26:23;2.10;57.80
27266;DHT22;14766;51.380;13.762;2023-03-01T01:28:51;2.10;57.90
27266;DHT22;14766;51.380;13.762;2023-03-01T01:31:18;2.10;58.00
27266;DHT22;14766;51.380;13.762;2023-03-01T01:33:46;2.00;57.90
27266;DHT22;14766;51.380;13.762;2023-03-01T01:36:13;2.00;58.00
27266;DHT22;14766;51.380;13.762;2023-03-01T01:38:40;2.00;58.00
27266;DHT22;14766;51.380;13.762;2023-03-01T01:41:10;2.00;58.00
27266;DHT22;14766;51.380;13.762;2023-03-01T01:43:41;2.00;58.00
27266;DHT22;14766;51.380;13.762;2023-03-01T01:46:28;1.90;57.90
27266;DHT22;14766;51.380;13.762;2023-03-01T01:49:00;1.90;57.70
27266;DHT22;14766;51.380;13.762;2023-03-01T01:51:40;1.90;57.70
27266;DHT22;14766;51.380;13.762;2023-03-01T01:54:14;1.90;57.70
27266;DHT22;14766;51.380;13.762;2023-03-01T01:56:45;1.90;57.70
27266;DHT22;14766;51.380;13.762;2023-03-01T01:59:14;1.90;57.90
27266;DHT22;14766;51.380;13.762;2023-03-01T02:01:42;1.80;57.80
27266;DHT22;14766;51.380;13.762;2023-03-01T02:04:09;1.80;57.90
27266;DHT22;14766;51.380;13.762;2023-03-01T02:06:41;1.80;58.00
27266;DHT22;14766;51.380;13.762;2023-03-01T02:09:15;1.80;57.90
27266;DHT22;14766;51.380;13.762;2023-03-01T02:11:45;1.80;57.90
27266;DHT22;14766;51.380;13.762;2023-03-01T02:14:14;1.70;58.00
27266;DHT22;14766;51.380;13.762;2023-03-01T02:16:43;1.70;58.00
27266;DHT22;14766;51.380;13.762;2023-03-01T02:22:20;1.70;57.90
27266;DHT22;14766;51.380;13.762;2023-03-01T02:30:25;1.70;57.80
27266;DHT22;14766;51.380;13.762;2023-03-01T02:32:54;1.60;57.80
27266;DHT22;14766;51.380;13.762;2023-03-01T02:35:37;1.60;57.70
27266;DHT22;14766;51.380;13.762;2023-03-01T02:38:08;1.60;57.70
27266;DHT22;14766;51.380;13.762;2023-03-01T02:40:38;1.60;57.70
27266;DHT22;14766;51.380;13.762;2023-03-01T02:43:08;1.50;57.80
27266;DHT22;14766;51.380;13.762;2023-03-01T02:45:37;1.60;57.80
27266;DHT22;14766;51.380;13.762;2023-03-01T02:48:04;1.50;57.80
27266;DHT22;14766;51.380;13.762;2023-03-01T02:53:32;1.50;57.90
27266;DHT22;14766;51.380;13.762;2023-03-01T02:56:01;1.50;57.80
27266;DHT22;14766;51.380;13.762;2023-03-01T02:58:28;1.50;57.70
27266;DHT22;14766;51.380;13.762;2023-03-01T03:00:56;1.50;57.60
27266;DHT22;14766;51.380;13.762;2023-03-01T03:03:24;1.50;57.60
27266;DHT22;14766;51.380;13.762;2023-03-01T03:05:51;1.50;57.70
27266;DHT22;14766;51.380;13.762;2023-03-01T03:08:18;1.40;57.50
27266;DHT22;14766;51.380;13.762;2023-03-01T03:10:51;1.40;57.60
27266;DHT22;14766;51.380;13.762;2023-03-01T03:13:19;1.40;57.70
27266;DHT22;14766;51.380;13.762;2023-03-01T03:15:49;1.40;57.80
27266;DHT22;14766;51.380;13.762;2023-03-01T03:18:17;1.40;57.80
27266;DHT22;14766;51.380;13.762;2023-03-01T03:20:44;1.40;57.70
27266;DHT22;14766;51.380;13.762;2023-03-01T03:23:12;1.30;57.70
27266;DHT22;14766;51.380;13.762;2023-03-01T03:25:39;1.30;57.80
27266;DHT22;14766;51.380;13.762;2023-03-01T03:28:07;1.30;57.90
27266;DHT22;14766;51.380;13.762;2023-03-01T03:30:39;1.30;57.80
27266;DHT22;14766;51.380;13.762;2023-03-01T03:33:07;1.30;57.90
27266;DHT22;14766;51.380;13.762;2023-03-01T03:35:42;1.30;58.00
27266;DHT22;14766;51.380;13.762;2023-03-01T03:38:11;1.20;58.00
27266;DHT22;14766;51.380;13.762;2023-03-01T03:40:47;1.20;57.90
27266;DHT22;14766;51.380;13.762;2023-03-01T03:43:16;1.20;58.00
27266;DHT22;14766;51.380;13.762;2023-03-01T03:45:45;1.20;57.90
27266;DHT22;14766;51.380;13.762;2023-03-01T03:48:13;1.20;57.90
27266;DHT22;14766;51.380;13.762;2023-03-01T03:50:40;1.20;57.80
27266;DHT22;14766;51.380;13.762;2023-03-01T03:53:10;1.20;57.80
27266;DHT22;14766;51.380;13.762;2023-03-01T03:55:38;1.20;57.90
27266;DHT22;14766;51.380;13.762;2023-03-01T03:58:09;1.20;57.90
27266;DHT22;14766;51.380;13.762;2023-03-01T04:00:42;1.20;57.90
27266;DHT22;14766;51.380;13.762;2023-03-01T04:03:11;1.10;57.80
27266;DHT22;14766;51.380;13.762;2023-03-01T04:05:40;1.10;57.80
27266;DHT22;14766;51.380;13.762;2023-03-01T04:08:08;1.10;57.80
27266;DHT22;14766;51.380;13.762;2023-03-01T04:10:46;1.10;57.90
27266;DHT22;14766;51.380;13.762;2023-03-01T04:13:17;1.10;57.80
27266;DHT22;14766;51.380;13.762;2023-03-01T04:15:51;1.10;57.80
27266;DHT22;14766;51.380;13.762;2023-03-01T04:18:21;1.10;57.80
27266;DHT22;14766;51.380;13.762;2023-03-01T04:20:49;1.10;57.80
27266;DHT22;14766;51.380;13.762;2023-03-01T04:23:20;1.00;57.70
27266;DHT22;14766;51.380;13.762;2023-03-01T04:25:50;1.00;57.70
27266;DHT22;14766;51.380;13.762;2023-03-01T04:30:52;1.00;58.30
27266;DHT22;14766;51.380;13.762;2023-03-01T04:33:19;1.00;57.70
27266;DHT22;14766;51.380;13.762;2023-03-01T04:35:47;1.00;57.70
27266;DHT22;14766;51.380;13.762;2023-03-01T04:38:18;0.90;57.80
27266;DHT22;14766;51.380;13.762;2023-03-01T04:40:46;0.90;57.80
27266;DHT22;14766;51.380;13.762;2023-03-01T04:43:13;0.90;57.90
27266;DHT22;14766;51.380;13.762;2023-03-01T04:45:41;0.90;57.90
27266;DHT22;14766;51.380;13.762;2023-03-01T04:48:08;0.90;57.90
27266;DHT22;14766;51.380;13.762;2023-03-01T04:50:36;0.80;57.90
27266;DHT22;14766;51.380;13.762;2023-03-01T04:53:03;0.80;58.00
27266;DHT22;14766;51.380;13.762;2023-03-01T04:55:30;0.80;58.00
27266;DHT22;14766;51.380;13.762;2023-03-01T04:57:58;0.80;58.00
27266;DHT22;14766;51.380;13.762;2023-03-01T05:00:26;0.80;57.90
27266;DHT22;14766;51.380;13.762;2023-03-01T05:02:59;0.80;57.80
27266;DHT22;14766;51.380;13.762;2023-03-01T05:05:35;0.80;57.70
27266;DHT22;14766;51.380;13.762;2023-03-01T05:08:06;0.80;57.60
27266;DHT22;14766;51.380;13.762;2023-03-01T05:10:35;0.70;57.60
27266;DHT22;14766;51.380;13.762;2023-03-01T05:13:03;0.70;57.60
27266;DHT22;14766;51.380;13.762;2023-03-01T05:15:31;0.70;57.60
27266;DHT22;14766;51.380;13.762;2023-03-01T05:18:00;0.70;57.70
27266;DHT22;14766;51.380;13.762;2023-03-01T05:20:29;0.70;57.80
27266;DHT22;14766;51.380;13.762;2023-03-01T05:22:59;0.70;57.80
27266;DHT22;14766;51.380;13.762;2023-03-01T05:25:27;0.70;57.80
27266;DHT22;14766;51.380;13.762;2023-03-01T05:28:01;0.70;57.80
27266;DHT22;14766;51.380;13.762;2023-03-01T05:30:34;0.70;57.80
27266;DHT22;14766;51.380;13.762;2023-03-01T05:33:02;0.60;57.80
27266;DHT22;14766;51.380;13.762;2023-03-01T05:35:29;0.60;57.80
27266;DHT22;14766;51.380;13.762;2023-03-01T05:37:59;0.60;57.80
27266;DHT22;14766;51.380;13.762;2023-03-01T05:40:26;0.60;57.90
27266;DHT22;14766;51.380;13.762;2023-03-01T05:42:55;0.60;57.90
27266;DHT22;14766;51.380;13.762;2023-03-01T05:45:24;0.60;57.90
27266;DHT22;14766;51.380;13.762;2023-03-01T05:47:53;0.60;57.90
27266;DHT22;14766;51.380;13.762;2023-03-01T05:50:27;0.60;57.90
27266;DHT22;14766;51.380;13.762;2023-03-01T05:53:07;0.60;58.00
27266;DHT22;14766;51.380;13.762;2023-03-01T05:55:35;0.60;58.00
27266;DHT22;14766;51.380;13.762;2023-03-01T05:58:06;0.50;58.00
27266;DHT22;14766;51.380;13.762;2023-03-01T06:00:33;0.60;58.10
27266;DHT22;14766;51.380;13.762;2023-03-01T06:03:01;0.60;58.80
27266;DHT22;14766;51.380;13.762;2023-03-01T06:05:28;0.50;58.00
27266;DHT22;14766;51.380;13.762;2023-03-01T06:08:02;0.50;58.00
27266;DHT22;14766;51.380;13.762;2023-03-01T06:10:36;0.50;58.00
27266;DHT22;14766;51.380;13.762;2023-03-01T06:13:05;0.50;58.00
27266;DHT22;14766;51.380;13.762;2023-03-01T06:15:32;0.50;58.00
27266;DHT22;14766;51.380;13.762;2023-03-01T06:17:59;0.50;58.10
27266;DHT22;14766;51.380;13.762;2023-03-01T06:20:28;0.60;58.30
27266;DHT22;14766;51.380;13.762;2023-03-01T06:22:55;0.60;58.50
27266;DHT22;14766;51.380;13.762;2023-03-01T06:25:24;0.70;58.60
27266;DHT22;14766;51.380;13.762;2023-03-01T06:27:52;0.80;58.80
27266;DHT22;14766;51.380;13.762;2023-03-01T06:30:20;0.90;59.00
27266;DHT22;14766;51.380;13.762;2023-03-01T06:32:48;1.20;59.30
27266;DHT22;14766;51.380;13.762;2023-03-01T06:35:16;1.40;59.40
27266;DHT22;14766;51.380;13.762;2023-03-01T06:37:46;1.70;59.40
27266;DHT22;14766;51.380;13.762;2023-03-01T06:40:14;2.10;59.00
27266;DHT22;14766;51.380;13.762;2023-03-01T06:42:43;2.40;58.40
27266;DHT22;14766;51.380;13.762;2023-03-01T06:45:14;2.90;58.10
27266;DHT22;14766;51.380;13.762;2023-03-01T06:47:42;3.30;57.60
27266;DHT22;14766;51.380;13.762;2023-03-01T06:50:10;3.70;57.00
27266;DHT22;14766;51.380;13.762;2023-03-01T06:52:38;4.10;56.50
27266;DHT22;14766;51.380;13.762;2023-03-01T06:55:06;4.60;55.80
27266;DHT22;14766;51.380;13.762;2023-03-01T06:57:33;5.00;55.10
27266;DHT22;14766;51.380;13.762;2023-03-01T07:00:00;5.40;54.40
27266;DHT22;14766;51.380;13.762;2023-03-01T07:02:27;5.80;53.60
27266;DHT22;14766;51.380;13.762;2023-03-01T07:04:55;6.20;52.90
27266;DHT22;14766;51.380;13.762;2023-03-01T07:07:22;6.60;52.00
27266;DHT22;14766;51.380;13.762;2023-03-01T07:09:49;7.00;51.40
27266;DHT22;14766;51.380;13.762;2023-03-01T07:12:16;7.40;50.80
27266;DHT22;14766;51.380;13.762;2023-03-01T07:14:44;7.80;50.20
27266;DHT22;14766;51.380;13.762;2023-03-01T07:17:11;8.20;49.70
27266;DHT22;14766;51.380;13.762;2023-03-01T07:19:38;8.50;49.30
27266;DHT22;14766;51.380;13.762;2023-03-01T07:22:05;8.90;48.50
27266;DHT22;14766;51.380;13.762;2023-03-01T07:24:34;9.20;48.00
27266;DHT22;14766;51.380;13.762;2023-03-01T07:27:02;9.60;47.40
27266;DHT22;14766;51.380;13.762;2023-03-01T07:29:29;9.90;46.70
27266;DHT22;14766;51.380;13.762;2023-03-01T07:31:57;10.30;46.10
27266;DHT22;14766;51.380;13.762;2023-03-01T07:34:24;10.60;45.50
27266;DHT22;14766;51.380;13.762;2023-03-01T07:36:51;10.90;45.30
27266;DHT22;14766;51.380;13.762;2023-03-01T07:39:19;11.20;44.70
27266;DHT22;14766;51.380;13.762;2023-03-01T07:41:46;11.50;44.30
27266;DHT22;14766;51.380;13.762;2023-03-01T07:44:13;11.80;43.70
27266;DHT22;14766;51.380;13.762;2023-03-01T07:46:40;12.10;43.10
27266;DHT22;14766;51.380;13.762;2023-03-01T07:49:08;12.40;42.80
27266;DHT22;14766;51.380;13.762;2023-03-01T07:51:35;12.60;42.40
27266;DHT22;14766;51.380;13.762;2023-03-01T07:54:02;12.90;41.90
27266;DHT22;14766;51.380;13.762;2023-03-01T07:56:29;13.20;41.80
27266;DHT22;14766;51.380;13.762;2023-03-01T07:58:59;13.50;41.20
27266;DHT22;14766;51.380;13.762;2023-03-01T08:01:26;13.80;40.90
27266;DHT22;14766;51.380;13.762;2023-03-01T08:03:53;14.00;40.10
27266;DHT22;14766;51.380;13.762;2023-03-01T08:06:21;14.20;38.50
27266;DHT22;14766;51.380;13.762;2023-03-01T08:08:48;14.40;38.40
27266;DHT22;14766;51.380;13.762;2023-03-01T08:11:15;14.50;38.30
27266;DHT22;14766;51.380;13.762;2023-03-01T08:13:47;14.70;38.40
27266;DHT22;14766;51.380;13.762;2023-03-01T08:16:20;14.90;38.20
27266;DHT22;14766;51.380;13.762;2023-03-01T08:18:47;15.10;37.50
27266;DHT22;14766;51.380;13.762;2023-03-01T08:21:16;15.20;37.10
27266;DHT22;14766;51.380;13.762;2023-03-01T08:23:44;15.40;36.00
27266;DHT22;14766;51.380;13.762;2023-03-01T08:26:17;15.50;36.30
27266;DHT22;14766;51.380;13.762;2023-03-01T08:28:45;15.60;35.80
27266;DHT22;14766;51.380;13.762;2023-03-01T08:31:25;15.80;35.90
27266;DHT22;14766;51.380;13.762;2023-03-01T08:33:55;16.00;35.20
27266;DHT22;14766;51.380;13.762;2023-03-01T08:36:35;16.10;34.80
27266;DHT22;14766;51.380;13.762;2023-03-01T08:39:04;16.20;35.40
27266;DHT22;14766;51.380;13.762;2023-03-01T08:41:32;16.40;35.00
27266;DHT22;14766;51.380;13.762;2023-03-01T08:43:59;16.60;34.10
27266;DHT22;14766;51.380;13.762;2023-03-01T08:46:31;16.60;33.40
27266;DHT22;14766;51.380;13.762;2023-03-01T08:48:59;16.80;33.50
27266;DHT22;14766;51.380;13.762;2023-03-01T08:51:26;16.90;33.60
27266;DHT22;14766;51.380;13.762;2023-03-01T08:53:54;16.90;32.80
27266;DHT22;14766;51.380;13.762;2023-03-01T08:56:21;17.00;32.90
27266;DHT22;14766;51.380;13.762;2023-03-01T08:58:49;17.20;33.10
27266;DHT22;14766;51.380;13.762;2023-03-01T09:01:18;17.30;32.60
27266;DHT22;14766;51.380;13.762;2023-03-01T09:03:46;17.40;32.00
27266;DHT22;14766;51.380;13.762;2023-03-01T09:06:14;17.50;32.50
27266;DHT22;14766;51.380;13.762;2023-03-01T09:08:45;17.60;32.40
27266;DHT22;14766;51.380;13.762;2023-03-01T09:11:15;17.70;31.90
27266;DHT22;14766;51.380;13.762;2023-03-01T09:13:45;17.90;31.70
27266;DHT22;14766;51.380;13.762;2023-03-01T09:16:16;18.00;31.40
27266;DHT22;14766;51.380;13.762;2023-03-01T09:18:51;18.10;30.90
27266;DHT22;14766;51.380;13.762;2023-03-01T09:21:29;18.20;31.20
27266;DHT22;14766;51.380;13.762;2023-03-01T09:24:13;18.30;31.10
27266;DHT22;14766;51.380;13.762;2023-03-01T09:26:41;18.40;30.30
27266;DHT22;14766;51.380;13.762;2023-03-01T09:29:08;18.40;30.20
27266;DHT22;14766;51.380;13.762;2023-03-01T09:31:36;18.50;30.20
27266;DHT22;14766;51.380;13.762;2023-03-01T09:34:04;18.60;29.60
27266;DHT22;14766;51.380;13.762;2023-03-01T09:36:32;18.60;29.30
27266;DHT22;14766;51.380;13.762;2023-03-01T09:39:01;18.50;28.70
27266;DHT22;14766;51.380;13.762;2023-03-01T09:42:10;18.50;29.40
27266;DHT22;14766;51.380;13.762;2023-03-01T09:44:57;18.40;28.50
27266;DHT22;14766;51.380;13.762;2023-03-01T09:47:35;18.40;28.60
27266;DHT22;14766;51.380;13.762;2023-03-01T09:50:20;18.40;28.50
27266;DHT22;14766;51.380;13.762;2023-03-01T09:53:11;18.30;28.10
27266;DHT22;14766;51.380;13.762;2023-03-01T10:00:59;18.00;28.20
27266;DHT22;14766;51.380;13.762;2023-03-01T10:03:41;18.00;28.30
27266;DHT22;14766;51.380;13.762;2023-03-01T10:06:15;17.90;28.30
27266;DHT22;14766;51.380;13.762;2023-03-01T10:09:19;17.90;29.10
27266;DHT22;14766;51.380;13.762;2023-03-01T10:11:55;18.00;29.20
27266;DHT22;14766;51.380;13.762;2023-03-01T10:17:03;18.10;29.80
27266;DHT22;14766;51.380;13.762;2023-03-01T10:19:44;18.10;29.70
27266;DHT22;14766;51.380;13.762;2023-03-01T10:22:30;18.20;28.90
27266;DHT22;14766;51.380;13.762;2023-03-01T10:25:00;18.20;29.20
27266;DHT22;14766;51.380;13.762;2023-03-01T10:32:51;18.10;28.70
27266;DHT22;14766;51.380;13.762;2023-03-01T10:35:28;18.10;28.50
27266;DHT22;14766;51.380;13.762;2023-03-01T10:38:09;18.00;28.30
27266;DHT22;14766;51.380;13.762;2023-03-01T10:40:56;17.90;28.10
27266;DHT22;14766;51.380;13.762;2023-03-01T10:43:26;17.80;28.60
27266;DHT22;14766;51.380;13.762;2023-03-01T10:45:56;17.70;28.20
27266;DHT22;14766;51.380;13.762;2023-03-01T10:48:25;17.70;28.50
27266;DHT22;14766;51.380;13.762;2023-03-01T10:53:33;17.60;27.60
27266;DHT22;14766;51.380;13.762;2023-03-01T10:56:05;17.60;27.70
27266;DHT22;14766;51.380;13.762;2023-03-01T10:58:34;17.50;27.70
27266;DHT22;14766;51.380;13.762;2023-03-01T11:01:30;17.40;27.50
27266;DHT22;14766;51.380;13.762;2023-03-01T11:04:18;17.40;28.00
27266;DHT22;14766;51.380;13.762;2023-03-01T11:06:58;17.30;28.00
27266;DHT22;14766;51.380;13.762;2023-03-01T11:09:31;17.30;28.50
27266;DHT22;14766;51.380;13.762;2023-03-01T11:12:15;17.20;28.70
27266;DHT22;14766;51.380;13.762;2023-03-01T11:14:53;17.20;28.90
27266;DHT22;14766;51.380;13.762;2023-03-01T11:17:31;17.20;28.10
27266;DHT22;14766;51.380;13.762;2023-03-01T11:20:21;17.10;28.00
27266;DHT22;14766;51.380;13.762;2023-03-01T11:22:55;17.10;28.20
27266;DHT22;14766;51.380;13.762;2023-03-01T11:25:35;17.00;28.50
27266;DHT22;14766;51.380;13.762;2023-03-01T11:28:05;16.90;28.40
27266;DHT22;14766;51.380;13.762;2023-03-01T11:36:38;16.90;28.90
27266;DHT22;14766;51.380;13.762;2023-03-01T11:39:31;16.80;28.90
27266;DHT22;14766;51.380;13.762;2023-03-01T11:42:11;16.80;28.80
27266;DHT22;14766;51.380;13.762;2023-03-01T11:44:49;16.80;28.80
27266;DHT22;14766;51.380;13.762;2023-03-01T11:50:42;16.70;28.10
27266;DHT22;14766;51.380;13.762;2023-03-01T11:53:46;16.60;27.80
27266;DHT22;14766;51.380;13.762;2023-03-01T11:59:07;16.30;28.30
27266;DHT22;14766;51.380;13.762;2023-03-01T12:01:44;16.10;28.60
27266;DHT22;14766;51.380;13.762;2023-03-01T12:07:06;15.90;29.20
27266;DHT22;14766;51.380;13.762;2023-03-01T12:12:43;15.70;29.30
27266;DHT22;14766;51.380;13.762;2023-03-01T12:29:30;15.20;29.00
27266;DHT22;14766;51.380;13.762;2023-03-01T12:32:31;15.10;29.20
27266;DHT22;14766;51.380;13.762;2023-03-01T12:35:32;15.00;29.10
27266;DHT22;14766;51.380;13.762;2023-03-01T12:38:08;14.90;29.50
27266;DHT22;14766;51.380;13.762;2023-03-01T12:49:42;14.60;29.40
27266;DHT22;14766;51.380;13.762;2023-03-01T12:55:15;14.40;29.60
27266;DHT22;14766;51.380;13.762;2023-03-01T12:58:29;14.20;28.50
27266;DHT22;14766;51.380;13.762;2023-03-01T13:10:26;13.60;26.40
27266;DHT22;14766;51.380;13.762;2023-03-01T13:13:02;13.50;26.40
27266;DHT22;14766;51.380;13.762;2023-03-01T13:15:37;13.30;26.80
27266;DHT22;14766;51.380;13.762;2023-03-01T13:21:06;13.00;26.90
27266;DHT22;14766;51.380;13.762;2023-03-01T13:23:38;12.80;27.20
27266;DHT22;14766;51.380;13.762;2023-03-01T13:26:17;12.70;28.10
27266;DHT22;14766;51.380;13.762;2023-03-01T13:28:49;12.50;28.60
27266;DHT22;14766;51.380;13.762;2023-03-01T13:38:59;12.30;30.70
27266;DHT22;14766;51.380;13.762;2023-03-01T13:49:48;12.20;31.40
27266;DHT22;14766;51.380;13.762;2023-03-01T13:52:52;12.20;31.20
27266;DHT22;14766;51.380;13.762;2023-03-01T13:55:49;12.10;31.70
27266;DHT22;14766;51.380;13.762;2023-03-01T13:58:33;12.10;32.10
27266;DHT22;14766;51.380;13.762;2023-03-01T14:01:02;12.10;32.10
27266;DHT22;14766;51.380;13.762;2023-03-01T14:03:31;12.00;32.20
27266;DHT22;14766;51.380;13.762;2023-03-01T14:06:05;12.00;32.50
27266;DHT22;14766;51.380;13.762;2023-03-01T14:08:45;12.00;32.40
27266;DHT22;14766;51.380;13.762;2023-03-01T14:19:59;11.90;32.90
27266;DHT22;14766;51.380;13.762;2023-03-01T14:22:35;11.90;32.90
27266;DHT22;14766;51.380;13.762;2023-03-01T14:27:44;11.80;32.90
27266;DHT22;14766;51.380;13.762;2023-03-01T14:30:18;11.80;32.80
27266;DHT22;14766;51.380;13.762;2023-03-01T14:32:54;11.70;32.60
27266;DHT22;14766;51.380;13.762;2023-03-01T14:35:25;11.70;33.00
27266;DHT22;14766;51.380;13.762;2023-03-01T14:37:53;11.60;32.80
27266;DHT22;14766;51.380;13.762;2023-03-01T14:42:57;11.50;33.10
27266;DHT22;14766;51.380;13.762;2023-03-01T14:45:28;11.50;33.40
27266;DHT22;14766;51.380;13.762;2023-03-01T14:48:00;11.50;33.50
27266;DHT22;14766;51.380;13.762;2023-03-01T14:50:35;11.40;33.60
27266;DHT22;14766;51.380;13.762;2023-03-01T14:53:04;11.40;33.80
27266;DHT22;14766;51.380;13.762;2023-03-01T14:55:41;11.30;33.90
27266;DHT22;14766;51.380;13.762;2023-03-01T14:58:14;11.30;34.20
27266;DHT22;14766;51.380;13.762;2023-03-01T15:00:54;11.30;34.30
27266;DHT22;14766;51.380;13.762;2023-03-01T15:03:33;11.20;34.50
27266;DHT22;14766;51.380;13.762;2023-03-01T15:06:02;11.20;34.50
27266;DHT22;14766;51.380;13.762;2023-03-01T15:08:31;11.10;34.50
27266;DHT22;14766;51.380;13.762;2023-03-01T15:11:23;11.10;34.80
27266;DHT22;14766;51.380;13.762;2023-03-01T15:13:52;11.10;34.90
27266;DHT22;14766;51.380;13.762;2023-03-01T15:16:24;11.10;34.80
27266;DHT22;14766;51.380;13.762;2023-03-01T15:18:59;11.00;34.60
27266;DHT22;14766;51.380;13.762;2023-03-01T15:21:32;11.00;34.60
27266;DHT22;14766;51.380;13.762;2023-03-01T15:26:50;10.90;34.80
27266;DHT22;14766;51.380;13.762;2023-03-01T15:29:26;10.90;35.00
27266;DHT22;14766;51.380;13.762;2023-03-01T15:34:50;10.80;34.80
27266;DHT22;14766;51.380;13.762;2023-03-01T15:37:53;10.80;34.90
27266;DHT22;14766;51.380;13.762;2023-03-01T15:40:25;10.80;35.20
27266;DHT22;14766;51.380;13.762;2023-03-01T15:43:00;10.70;35.30
27266;DHT22;14766;51.380;13.762;2023-03-01T15:45:28;10.70;35.50
27266;DHT22;14766;51.380;13.762;2023-03-01T15:48:25;10.70;35.50
27266;DHT22;14766;51.380;13.762;2023-03-01T15:50:56;10.60;35.80
27266;DHT22;14766;51.380;13.762;2023-03-01T15:53:24;10.60;36.00
27266;DHT22;14766;51.380;13.762;2023-03-01T15:55:54;10.60;36.00
27266;DHT22;14766;51.380;13.762;2023-03-01T15:58:23;10.60;36.80
27266;DHT22;14766;51.380;13.762;2023-03-01T16:00:51;10.50;36.20
27266;DHT22;14766;51.380;13.762;2023-03-01T16:03:28;10.50;36.50
27266;DHT22;14766;51.380;13.762;2023-03-01T16:05:57;10.50;36.60
27266;DHT22;14766;51.380;13.762;2023-03-01T16:08:24;10.40;36.70
27266;DHT22;14766;51.380;13.762;2023-03-01T16:10:51;10.40;36.70
27266;DHT22;14766;51.380;13.762;2023-03-01T16:13:20;10.30;36.70
27266;DHT22;14766;51.380;13.762;2023-03-01T16:15:47;10.30;36.80
27266;DHT22;14766;51.380;13.762;2023-03-01T16:18:15;10.30;36.90
27266;DHT22;14766;51.380;13.762;2023-03-01T16:20:42;10.20;37.00
27266;DHT22;14766;51.380;13.762;2023-03-01T16:23:11;10.20;37.10
27266;DHT22;14766;51.380;13.762;2023-03-01T16:25:38;10.20;37.20
27266;DHT22;14766;51.380;13.762;2023-03-01T16:28:06;10.10;37.20
27266;DHT22;14766;51.380;13.762;2023-03-01T16:30:37;10.10;37.30
27266;DHT22;14766;51.380;13.762;2023-03-01T16:33:07;10.00;37.40
27266;DHT22;14766;51.380;13.762;2023-03-01T16:35:55;10.00;37.50
27266;DHT22;14766;51.380;13.762;2023-03-01T16:38:25;10.00;37.60
27266;DHT22;14766;51.380;13.762;2023-03-01T16:40:52;9.90;37.70
27266;DHT22;14766;51.380;13.762;2023-03-01T16:43:20;9.80;37.70
27266;DHT22;14766;51.380;13.762;2023-03-01T16:45:47;9.80;37.70
27266;DHT22;14766;51.380;13.762;2023-03-01T16:48:14;9.80;38.00
27266;DHT22;14766;51.380;13.762;2023-03-01T16:50:41;9.70;38.10
27266;DHT22;14766;51.380;13.762;2023-03-01T16:53:09;9.70;38.20
27266;DHT22;14766;51.380;13.762;2023-03-01T16:55:36;9.60;38.20
27266;DHT22;14766;51.380;13.762;2023-03-01T16:58:04;9.60;38.50
27266;DHT22;14766;51.380;13.762;2023-03-01T17:00:32;9.50;38.60
27266;DHT22;14766;51.380;13.762;2023-03-01T17:02:59;9.50;39.00
27266;DHT22;14766;51.380;13.762;2023-03-01T17:05:27;9.40;39.20
27266;DHT22;14766;51.380;13.762;2023-03-01T17:07:54;9.40;39.60
27266;DHT22;14766;51.380;13.762;2023-03-01T17:10:22;9.30;39.60
27266;DHT22;14766;51.380;13.762;2023-03-01T17:12:49;9.20;39.80
27266;DHT22;14766;51.380;13.762;2023-03-01T17:15:17;9.20;40.20
27266;DHT22;14766;51.380;13.762;2023-03-01T17:17:44;9.10;40.50
27266;DHT22;14766;51.380;13.762;2023-03-01T17:20:11;9.00;40.80
27266;DHT22;14766;51.380;13.762;2023-03-01T17:22:38;9.00;41.00
27266;DHT22;14766;51.380;13.762;2023-03-01T17:25:22;8.90;41.00
27266;DHT22;14766;51.380;13.762;2023-03-01T17:27:49;8.80;41.90
27266;DHT22;14766;51.380;13.762;2023-03-01T17:30:17;8.70;41.20
27266;DHT22;14766;51.380;13.762;2023-03-01T17:32:45;8.60;41.30
27266;DHT22;14766;51.380;13.762;2023-03-01T17:35:12;8.60;41.40
27266;DHT22;14766;51.380;13.762;2023-03-01T17:37:39;8.50;41.70
27266;DHT22;14766;51.380;13.762;2023-03-01T17:40:12;8.40;42.00
27266;DHT22;14766;51.380;13.762;2023-03-01T17:42:39;8.40;42.20
27266;DHT22;14766;51.380;13.762;2023-03-01T17:45:07;8.30;42.40
27266;DHT22;14766;51.380;13.762;2023-03-01T17:47:34;8.20;43.00
27266;DHT22;14766;51.380;13.762;2023-03-01T17:50:01;8.20;42.50
27266;DHT22;14766;51.380;13.762;2023-03-01T17:52:30;8.10;42.60
27266;DHT22;14766;51.380;13.762;2023-03-01T17:54:57;8.00;42.80